createdAt,value
2023-04-27T00:00:47.202Z,2.92
2023-04-27T00:03:13.868Z,2.88
2023-04-27T00:05:40.550Z,2.17
2023-04-27T00:08:07.539Z,2.53
2023-04-27T00:10:34.638Z,2.80
2023-04-27T00:13:01.766Z,3.00
2023-04-27T00:15:29.420Z,3.38
2023-04-27T00:17:57.386Z,3.17
2023-04-27T00:20:23.983Z,2.53
2023-04-27T00:22:50.782Z,3.28
2023-04-27T00:25:17.249Z,2.55
2023-04-27T00:27:43.643Z,3.13
2023-04-27T00:30:11.358Z,2.25
2023-04-27T00:32:37.804Z,2.20
2023-04-27T00:35:04.381Z,2.38
2023-04-27T00:37:31.155Z,2.33
2023-04-27T00:39:57.909Z,2.17
2023-04-27T00:42:25.054Z,2.30
2023-04-27T00:44:51.477Z,2.40
2023-04-27T00:47:18.696Z,2.53
2023-04-27T00:49:45.293Z,2.50
2023-04-27T00:52:11.752Z,2.35
2023-04-27T00:54:39.077Z,2.97
2023-04-27T00:57:05.680Z,2.80
2023-04-27T00:59:32.224Z,3.03
2023-04-27T01:02:00.306Z,2.58
2023-04-27T01:04:27.103Z,2.25
2023-04-27T01:06:53.991Z,2.58
2023-04-27T01:09:22.156Z,2.72
2023-04-27T01:11:48.706Z,2.28
2023-04-27T01:14:15.337Z,2.55
2023-04-27T01:16:42.255Z,2.28
2023-04-27T01:19:09.254Z,2.53
2023-04-27T01:21:35.769Z,2.28
2023-04-27T01:24:05.431Z,2.35
2023-04-27T01:26:31.903Z,2.45
2023-04-27T01:28:58.440Z,2.55
2023-04-27T01:31:25.672Z,2.60
2023-04-27T01:33:52.556Z,3.50
2023-04-27T01:36:19.075Z,3.10
2023-04-27T01:38:45.926Z,2.40
2023-04-27T01:41:12.347Z,2.25
2023-04-27T01:43:38.802Z,2.78
2023-04-27T01:46:10.828Z,2.33
2023-04-27T01:48:38.352Z,2.53
2023-04-27T01:51:04.926Z,2.35
2023-04-27T01:53:32.321Z,2.45
2023-04-27T01:56:02.216Z,2.67
2023-04-27T01:58:28.951Z,2.35
2023-04-27T02:00:55.766Z,2.00
2023-04-27T02:03:22.506Z,2.30
2023-04-27T02:05:49.745Z,2.45
2023-04-27T02:08:16.205Z,2.53
2023-04-27T02:10:42.802Z,2.20
2023-04-27T02:13:10.471Z,2.88
2023-04-27T02:15:37.076Z,2.42
2023-04-27T02:18:03.886Z,2.55
2023-04-27T02:20:33.968Z,3.15
2023-04-27T02:23:01.751Z,2.45
2023-04-27T02:25:28.539Z,2.67
2023-04-27T02:27:55.594Z,2.47
2023-04-27T02:30:22.890Z,2.40
2023-04-27T02:32:49.999Z,2.53
2023-04-27T02:35:16.565Z,2.40
2023-04-27T02:37:43.578Z,2.58
2023-04-27T02:40:10.313Z,2.50
2023-04-27T02:42:38.756Z,3.08
2023-04-27T02:45:07.681Z,2.50
2023-04-27T02:47:34.440Z,2.50
2023-04-27T02:50:01.471Z,2.40
2023-04-27T02:52:28.404Z,2.67
2023-04-27T02:54:54.821Z,1.88
2023-04-27T02:57:21.577Z,2.90
2023-04-27T02:59:48.242Z,2.30
2023-04-27T03:02:14.758Z,2.97
2023-04-27T03:04:42.633Z,2.35
2023-04-27T03:07:09.264Z,2.47
2023-04-27T03:09:35.700Z,2.42
2023-04-27T03:12:03.117Z,2.40
2023-04-27T03:14:29.533Z,2.85
2023-04-27T03:16:57.381Z,2.22
2023-04-27T03:19:24.056Z,2.33
2023-04-27T03:21:50.641Z,2.40
2023-04-27T03:24:17.223Z,2.92
2023-04-27T03:26:43.671Z,2.72
2023-04-27T03:29:10.102Z,2.58
2023-04-27T03:31:36.544Z,2.75
2023-04-27T03:34:03.574Z,2.90
2023-04-27T03:36:29.958Z,2.90
2023-04-27T03:38:56.360Z,2.55
2023-04-27T03:41:23.106Z,2.40
2023-04-27T03:43:50.787Z,2.50
2023-04-27T03:46:17.716Z,2.65
2023-04-27T03:48:44.264Z,2.55
2023-04-27T03:51:10.627Z,2.42
2023-04-27T03:53:37.575Z,2.63
2023-04-27T03:56:04.271Z,2.97
2023-04-27T03:58:31.201Z,3.00
2023-04-27T04:00:58.722Z,2.83
2023-04-27T04:03:25.820Z,2.80
2023-04-27T04:05:52.432Z,3.00
2023-04-27T04:08:18.817Z,2.55
2023-04-27T04:10:45.550Z,2.50
2023-04-27T04:13:12.012Z,2.42
2023-04-27T04:15:38.416Z,2.75
2023-04-27T04:18:05.479Z,2.53
2023-04-27T04:20:31.951Z,2.97
2023-04-27T04:22:58.326Z,3.03
2023-04-27T04:25:26.509Z,3.25
2023-04-27T04:27:52.951Z,3.35
2023-04-27T04:30:19.993Z,3.30
2023-04-27T04:32:46.918Z,3.25
2023-04-27T04:35:14.180Z,3.78
2023-04-27T04:37:41.071Z,3.65
2023-04-27T04:40:11.274Z,2.92
2023-04-27T04:42:37.928Z,3.70
2023-04-27T04:45:05.026Z,3.53
2023-04-27T04:47:34.766Z,3.85
2023-04-27T04:50:01.538Z,4.53
2023-04-27T04:52:28.449Z,5.00
2023-04-27T04:54:55.096Z,4.50
2023-04-27T04:57:22.635Z,4.95
2023-04-27T04:59:49.124Z,5.35
2023-04-27T05:02:15.777Z,4.57
2023-04-27T05:04:42.639Z,4.70
2023-04-27T05:07:12.007Z,5.88
2023-04-27T05:09:40.606Z,5.25
2023-04-27T05:12:07.692Z,5.25
2023-04-27T05:14:34.147Z,4.95
2023-04-27T05:17:00.952Z,5.63
2023-04-27T05:19:31.258Z,5.50
2023-04-27T05:21:59.030Z,5.40
2023-04-27T05:24:26.442Z,6.75
2023-04-27T05:26:53.983Z,6.15
2023-04-27T05:29:21.690Z,5.85
2023-04-27T05:31:48.227Z,5.60
2023-04-27T05:34:15.414Z,6.18
2023-04-27T05:36:41.837Z,6.00
2023-04-27T05:39:08.259Z,6.32
2023-04-27T05:41:35.409Z,6.03
2023-04-27T05:44:01.917Z,6.15
2023-04-27T05:46:28.495Z,6.07
2023-04-27T05:48:55.412Z,5.38
2023-04-27T05:51:21.983Z,5.82
2023-04-27T05:53:48.527Z,6.05
2023-04-27T05:56:15.333Z,6.18
2023-04-27T05:58:42.538Z,5.82
2023-04-27T06:01:09.314Z,5.75
2023-04-27T06:03:35.958Z,5.43
2023-04-27T06:06:02.762Z,4.78
2023-04-27T06:08:30.155Z,4.80
2023-04-27T06:10:56.983Z,4.20
2023-04-27T06:13:23.430Z,4.00
2023-04-27T06:15:50.062Z,3.95
2023-04-27T06:18:17.133Z,3.95
2023-04-27T06:20:43.638Z,3.80
2023-04-27T06:23:10.036Z,3.63
2023-04-27T06:25:39.131Z,3.88
2023-04-27T06:28:06.259Z,3.45
2023-04-27T06:30:32.806Z,3.40
2023-04-27T06:32:59.253Z,3.35
2023-04-27T06:35:25.740Z,3.38
2023-04-27T06:37:52.218Z,3.50
2023-04-27T06:40:19.057Z,3.55
2023-04-27T06:42:45.794Z,3.53
2023-04-27T06:45:12.255Z,3.30
2023-04-27T06:47:38.778Z,3.78
2023-04-27T06:50:06.123Z,3.42
2023-04-27T06:52:33.583Z,3.30
2023-04-27T06:54:59.995Z,4.05
2023-04-27T06:57:26.884Z,3.80
2023-04-27T06:59:53.752Z,3.22
2023-04-27T07:02:20.432Z,3.58
2023-04-27T07:04:47.773Z,3.25
2023-04-27T07:07:14.625Z,4.00
2023-04-27T07:09:40.940Z,3.80
2023-04-27T07:12:07.345Z,3.78
2023-04-27T07:14:34.144Z,3.63
2023-04-27T07:17:00.573Z,3.85
2023-04-27T07:19:27.022Z,3.45
2023-04-27T07:21:53.725Z,3.58
2023-04-27T07:24:20.521Z,3.33
2023-04-27T07:26:47.472Z,3.58
2023-04-27T07:29:26.114Z,3.97
2023-04-27T07:31:54.817Z,4.35
2023-04-27T07:34:21.825Z,4.68
2023-04-27T07:36:48.165Z,5.20
2023-04-27T07:39:15.116Z,4.20
2023-04-27T07:41:41.635Z,4.85
2023-04-27T07:44:07.954Z,5.35
2023-04-27T07:46:34.693Z,5.00
2023-04-27T07:49:01.087Z,5.00
2023-04-27T07:51:28.659Z,5.07
2023-04-27T07:53:55.930Z,5.60
2023-04-27T07:56:22.264Z,5.47
2023-04-27T07:58:48.644Z,5.47
2023-04-27T08:01:15.615Z,4.80
2023-04-27T08:03:42.151Z,5.05
2023-04-27T08:06:09.036Z,5.25
2023-04-27T08:08:36.660Z,4.05
2023-04-27T08:11:03.803Z,6.00
2023-04-27T08:13:30.879Z,5.22
2023-04-27T08:15:59.188Z,5.47
2023-04-27T08:18:27.116Z,5.53
2023-04-27T08:20:54.539Z,4.95
2023-04-27T08:23:21.100Z,5.20
2023-04-27T08:25:48.369Z,6.00
2023-04-27T08:28:15.498Z,6.00
2023-04-27T08:30:42.652Z,5.68
2023-04-27T08:33:09.009Z,6.20
2023-04-27T08:35:35.727Z,5.32
2023-04-27T08:38:02.249Z,5.65
2023-04-27T08:40:28.813Z,5.47
2023-04-27T08:42:57.532Z,5.78
2023-04-27T08:45:25.161Z,5.80
2023-04-27T08:47:52.540Z,6.18
2023-04-27T08:50:19.666Z,6.45
2023-04-27T08:52:47.426Z,6.03
2023-04-27T08:55:16.631Z,5.53
2023-04-27T08:57:54.335Z,5.60
2023-04-27T09:00:21.474Z,5.57
2023-04-27T09:02:49.249Z,5.35
2023-04-27T09:05:18.252Z,5.13
2023-04-27T09:08:05.272Z,5.00
2023-04-27T09:10:46.981Z,5.28
2023-04-27T09:13:13.914Z,5.80
2023-04-27T09:15:48.749Z,5.40
2023-04-27T09:18:20.606Z,5.40
2023-04-27T09:20:49.115Z,5.60
2023-04-27T09:23:38.044Z,5.80
2023-04-27T09:26:09.112Z,4.45
2023-04-27T09:28:39.535Z,4.50
2023-04-27T09:31:09.029Z,4.70
2023-04-27T09:33:36.586Z,4.85
2023-04-27T09:36:07.032Z,4.47
2023-04-27T09:38:34.214Z,4.82
2023-04-27T09:41:01.880Z,4.72
2023-04-27T09:43:29.871Z,5.00
2023-04-27T09:45:57.561Z,5.00
2023-04-27T09:48:27.289Z,4.90
2023-04-27T09:50:53.900Z,5.03
2023-04-27T09:53:32.484Z,4.97
2023-04-27T09:56:42.299Z,4.40
2023-04-27T09:59:11.920Z,4.32
2023-04-27T10:01:50.354Z,7.65
2023-04-27T10:04:35.260Z,4.63
2023-04-27T10:07:05.127Z,3.67
2023-04-27T10:09:42.637Z,3.80
2023-04-27T10:12:23.315Z,4.07
2023-04-27T10:15:01.671Z,4.30
2023-04-27T10:17:33.012Z,4.18
2023-04-27T10:20:08.140Z,3.63
2023-04-27T10:22:52.517Z,3.58
2023-04-27T10:28:05.520Z,4.50
2023-04-27T10:30:37.687Z,4.47
2023-04-27T10:33:09.957Z,3.85
2023-04-27T10:35:42.547Z,3.97
2023-04-27T10:38:16.214Z,3.97
2023-04-27T10:40:54.694Z,3.95
2023-04-27T10:43:25.624Z,3.97
2023-04-27T10:45:51.996Z,4.60
2023-04-27T10:48:19.075Z,4.57
2023-04-27T10:50:46.727Z,4.20
2023-04-27T10:53:15.055Z,4.72
2023-04-27T10:55:41.969Z,4.53
2023-04-27T10:58:08.556Z,4.40
2023-04-27T11:00:44.619Z,4.30
2023-04-27T11:03:23.552Z,4.30
2023-04-27T11:06:00.119Z,4.00
2023-04-27T11:08:27.033Z,5.55
2023-04-27T11:10:53.416Z,4.20
2023-04-27T11:13:22.372Z,4.28
2023-04-27T11:15:52.292Z,4.05
2023-04-27T11:18:20.218Z,4.10
2023-04-27T11:20:51.626Z,4.53
2023-04-27T11:23:29.440Z,4.78
2023-04-27T11:25:56.722Z,3.97
2023-04-27T11:28:24.110Z,4.60
2023-04-27T11:31:00.950Z,4.57
2023-04-27T11:33:28.166Z,4.70
2023-04-27T11:35:56.275Z,4.72
2023-04-27T11:38:23.310Z,6.95
2023-04-27T11:41:00.902Z,4.93
2023-04-27T11:43:27.961Z,5.03
2023-04-27T11:45:56.141Z,4.70
2023-04-27T11:48:27.189Z,4.13
2023-04-27T11:50:54.168Z,4.55
2023-04-27T11:53:34.796Z,6.20
2023-04-27T11:56:06.799Z,4.90
2023-04-27T11:58:44.428Z,4.88
2023-04-27T12:01:12.850Z,4.57
2023-04-27T12:03:39.548Z,5.82
2023-04-27T12:06:27.475Z,5.53
2023-04-27T12:08:53.355Z,5.38
2023-04-27T12:11:19.875Z,5.18
2023-04-27T12:13:47.074Z,4.57
2023-04-27T12:16:13.951Z,4.93
2023-04-27T12:18:40.307Z,5.20
2023-04-27T12:23:34.523Z,5.32
2023-04-27T12:26:00.860Z,5.70
2023-04-27T12:28:27.823Z,5.40
2023-04-27T12:30:54.902Z,6.15
2023-04-27T12:33:21.921Z,6.22
2023-04-27T12:35:48.877Z,6.07
2023-04-27T12:38:15.739Z,5.93
2023-04-27T12:40:42.119Z,5.82
2023-04-27T12:43:09.098Z,5.18
2023-04-27T12:45:35.466Z,5.13
2023-04-27T12:48:04.270Z,5.05
2023-04-27T12:50:37.502Z,5.47
2023-04-27T12:53:03.884Z,5.50
2023-04-27T12:55:33.600Z,6.43
2023-04-27T12:58:01.029Z,6.97
2023-04-27T13:00:27.674Z,5.90
2023-04-27T13:02:54.806Z,6.93
2023-04-27T13:05:22.218Z,6.28
2023-04-27T13:07:48.629Z,6.20
2023-04-27T13:10:15.490Z,6.20
2023-04-27T13:12:42.242Z,6.20
2023-04-27T13:15:10.211Z,6.05
2023-04-27T13:17:37.404Z,6.93
2023-04-27T13:20:04.824Z,6.38
2023-04-27T13:22:31.842Z,5.55
2023-04-27T13:24:59.181Z,5.90
2023-04-27T13:27:28.667Z,6.55
2023-04-27T13:29:55.876Z,5.50
2023-04-27T13:32:23.229Z,5.60
2023-04-27T13:34:49.867Z,5.43
2023-04-27T13:37:17.335Z,5.97
2023-04-27T13:39:44.252Z,5.15
2023-04-27T13:42:11.551Z,5.60
2023-04-27T13:44:38.590Z,4.65
2023-04-27T13:47:05.852Z,4.80
2023-04-27T13:49:32.765Z,4.63
2023-04-27T13:52:00.566Z,4.13
2023-04-27T13:54:27.895Z,4.75
2023-04-27T13:56:54.639Z,4.43
2023-04-27T13:59:22.815Z,5.10
2023-04-27T14:01:50.538Z,4.75
2023-04-27T14:04:17.164Z,5.53
2023-04-27T14:06:43.982Z,5.43
2023-04-27T14:09:11.071Z,5.10
2023-04-27T14:11:52.458Z,5.43
2023-04-27T14:14:22.734Z,4.93
2023-04-27T14:16:51.296Z,5.65
2023-04-27T14:19:20.917Z,5.05
2023-04-27T14:21:49.831Z,5.30
2023-04-27T14:24:16.406Z,4.72
2023-04-27T14:26:44.434Z,5.45
2023-04-27T14:29:12.015Z,5.75
2023-04-27T14:31:39.464Z,4.88
2023-04-27T14:34:07.535Z,5.35
2023-04-27T14:36:34.096Z,5.28
2023-04-27T14:39:01.551Z,5.70
2023-04-27T14:41:29.137Z,5.20
2023-04-27T14:43:56.172Z,5.10
2023-04-27T14:46:23.055Z,5.68
2023-04-27T14:48:50.700Z,5.05
2023-04-27T14:51:17.799Z,6.05
2023-04-27T14:53:47.343Z,4.60
2023-04-27T14:56:55.847Z,5.03
2023-04-27T14:59:23.068Z,5.05
2023-04-27T15:01:49.404Z,4.80
2023-04-27T15:07:00.897Z,3.95
2023-04-27T15:09:27.276Z,5.00
2023-04-27T15:11:53.882Z,4.03
2023-04-27T15:14:21.062Z,3.97
2023-04-27T15:16:49.916Z,3.55
2023-04-27T15:19:16.452Z,4.25
2023-04-27T15:21:43.368Z,3.80
2023-04-27T15:24:10.151Z,3.30
2023-04-27T15:26:36.549Z,3.90
2023-04-27T15:29:03.413Z,3.65
2023-04-27T15:31:29.943Z,3.05
2023-04-27T15:36:37.591Z,3.60
2023-04-27T15:39:04.036Z,3.40
2023-04-27T15:41:30.436Z,2.97
2023-04-27T15:43:56.886Z,3.08
2023-04-27T15:46:23.816Z,3.40
2023-04-27T15:48:50.681Z,3.28
2023-04-27T15:51:17.284Z,3.22
2023-04-27T15:53:44.310Z,3.40
2023-04-27T15:56:10.957Z,3.28
2023-04-27T15:58:37.500Z,3.83
2023-04-27T16:01:06.599Z,3.40
2023-04-27T16:03:34.710Z,2.97
2023-04-27T16:06:01.886Z,4.18
2023-04-27T16:08:28.480Z,4.13
2023-04-27T16:10:55.525Z,4.43
2023-04-27T16:13:23.971Z,3.65
2023-04-27T16:15:50.580Z,3.35
2023-04-27T16:18:17.433Z,3.17
2023-04-27T16:20:44.083Z,3.67
2023-04-27T16:23:10.756Z,4.03
2023-04-27T16:25:37.700Z,4.00
2023-04-27T16:28:04.419Z,3.88
2023-04-27T16:30:32.092Z,3.92
2023-04-27T16:32:59.075Z,4.05
2023-04-27T16:35:26.322Z,4.38
2023-04-27T16:37:54.790Z,5.60
2023-04-27T16:40:21.331Z,3.72
2023-04-27T16:42:48.074Z,5.28
2023-04-27T16:45:15.763Z,5.15
2023-04-27T16:47:43.413Z,4.50
2023-04-27T16:50:10.651Z,4.18
2023-04-27T16:52:37.465Z,4.60
2023-04-27T16:55:05.555Z,4.40
2023-04-27T16:57:32.610Z,4.45
2023-04-27T17:00:01.295Z,4.68
2023-04-27T17:02:28.344Z,4.55
2023-04-27T17:04:56.160Z,3.88
2023-04-27T17:07:23.882Z,3.70
2023-04-27T17:09:51.683Z,3.75
2023-04-27T17:12:18.780Z,4.03
2023-04-27T17:14:46.187Z,3.47
2023-04-27T17:17:14.270Z,4.03
2023-04-27T17:19:41.399Z,3.78
2023-04-27T17:22:10.869Z,5.13
2023-04-27T17:24:38.743Z,5.22
2023-04-27T17:27:05.249Z,4.47
2023-04-27T17:29:32.092Z,4.35
2023-04-27T17:31:59.855Z,4.40
2023-04-27T17:34:26.806Z,4.65
2023-04-27T17:36:53.445Z,4.68
2023-04-27T17:39:23.113Z,5.20
2023-04-27T17:41:50.116Z,4.97
2023-04-27T17:44:17.574Z,4.25
2023-04-27T17:46:49.939Z,4.93
2023-04-27T17:49:18.200Z,4.13
2023-04-27T17:51:45.858Z,4.20
2023-04-27T17:54:13.949Z,3.80
2023-04-27T17:56:41.253Z,4.53
2023-04-27T17:59:09.203Z,3.75
2023-04-27T18:01:37.267Z,2.80
2023-04-27T18:04:07.177Z,3.15
2023-04-27T18:06:35.232Z,3.35
2023-04-27T18:09:02.369Z,3.08
2023-04-27T18:11:29.197Z,3.25
2023-04-27T18:13:56.570Z,2.50
2023-04-27T18:16:22.927Z,4.07
2023-04-27T18:18:49.370Z,3.20
2023-04-27T18:21:16.209Z,3.13
2023-04-27T18:23:42.929Z,2.85
2023-04-27T18:26:11.068Z,2.90
2023-04-27T18:28:40.026Z,3.33
2023-04-27T18:31:17.087Z,3.30
2023-04-27T18:33:47.307Z,3.17
2023-04-27T18:36:13.657Z,3.63
2023-04-27T18:38:40.085Z,3.15
2023-04-27T18:41:07.495Z,3.50
2023-04-27T18:43:35.561Z,2.95
2023-04-27T18:46:02.523Z,3.17
2023-04-27T18:48:29.354Z,3.00
2023-04-27T18:50:55.709Z,3.80
2023-04-27T18:53:22.608Z,3.30
2023-04-27T18:55:49.087Z,3.40
2023-04-27T18:58:15.894Z,2.90
2023-04-27T19:00:43.013Z,3.20
2023-04-27T19:03:09.605Z,3.67
2023-04-27T19:05:36.451Z,3.63
2023-04-27T19:08:03.407Z,4.03
2023-04-27T19:10:30.167Z,4.07
2023-04-27T19:12:56.969Z,3.45
2023-04-27T19:15:23.432Z,3.60
2023-04-27T19:18:02.196Z,3.58
2023-04-27T19:20:36.216Z,3.47
2023-04-27T19:23:02.708Z,3.85
2023-04-27T19:25:29.118Z,3.00
2023-04-27T19:27:55.577Z,4.00
2023-04-27T19:30:22.437Z,3.15
2023-04-27T19:32:48.904Z,3.30
2023-04-27T19:35:15.819Z,3.80
2023-04-27T19:37:42.503Z,3.40
2023-04-27T19:40:09.479Z,3.85
2023-04-27T19:42:35.909Z,3.70
2023-04-27T19:45:03.837Z,3.80
2023-04-27T19:47:30.789Z,3.92
2023-04-27T19:49:58.891Z,3.60
2023-04-27T19:52:26.159Z,3.67
2023-04-27T19:54:53.712Z,3.35
2023-04-27T19:57:21.148Z,3.00
2023-04-27T19:59:48.448Z,4.65
2023-04-27T20:02:15.292Z,4.47
2023-04-27T20:04:41.986Z,5.13
2023-04-27T20:07:08.932Z,4.38
2023-04-27T20:09:35.361Z,4.55
2023-04-27T20:12:02.224Z,4.38
2023-04-27T20:14:31.376Z,4.18
2023-04-27T20:16:57.871Z,4.43
2023-04-27T20:19:25.042Z,4.72
2023-04-27T20:21:51.849Z,4.78
2023-04-27T20:24:18.388Z,4.18
2023-04-27T20:26:44.801Z,4.28
2023-04-27T20:29:11.838Z,4.38
2023-04-27T20:31:38.393Z,4.38
2023-04-27T20:34:04.748Z,4.10
2023-04-27T20:36:32.566Z,4.10
2023-04-27T20:39:01.804Z,4.22
2023-04-27T20:41:28.354Z,4.07
2023-04-27T20:43:55.726Z,4.05
2023-04-27T20:46:22.273Z,4.60
2023-04-27T20:48:48.583Z,5.03
2023-04-27T20:51:15.542Z,3.88
2023-04-27T20:53:41.938Z,3.95
2023-04-27T20:56:08.995Z,4.40
2023-04-27T20:58:35.821Z,4.50
2023-04-27T21:01:02.153Z,3.92
2023-04-27T21:03:28.962Z,3.63
2023-04-27T21:05:55.467Z,4.43
2023-04-27T21:08:21.818Z,3.75
2023-04-27T21:10:48.689Z,3.78
2023-04-27T21:13:15.030Z,3.83
2023-04-27T21:15:41.359Z,3.80
2023-04-27T21:18:13.537Z,4.28
2023-04-27T21:20:45.487Z,3.53
2023-04-27T21:23:15.135Z,3.67
2023-04-27T21:25:47.894Z,3.78
2023-04-27T21:28:14.525Z,3.15
2023-04-27T21:30:41.618Z,4.57
2023-04-27T21:33:08.086Z,3.63
2023-04-27T21:35:34.794Z,3.90
2023-04-27T21:38:01.585Z,3.65
2023-04-27T21:40:27.937Z,4.10
2023-04-27T21:42:54.607Z,3.20
2023-04-27T21:45:21.862Z,3.15
2023-04-27T21:47:48.205Z,3.50
2023-04-27T21:50:16.287Z,3.22
2023-04-27T21:52:43.052Z,3.63
2023-04-27T21:55:09.925Z,2.95
2023-04-27T21:57:36.672Z,3.50
2023-04-27T22:00:09.111Z,3.90
2023-04-27T22:02:35.606Z,3.90
2023-04-27T22:05:02.370Z,3.47
2023-04-27T22:07:29.289Z,3.50
2023-04-27T22:09:55.605Z,4.00
2023-04-27T22:12:21.918Z,3.03
2023-04-27T22:14:48.791Z,3.85
2023-04-27T22:17:15.124Z,3.72
2023-04-27T22:19:41.458Z,3.65
2023-04-27T22:22:08.860Z,3.35
2023-04-27T22:24:35.217Z,4.22
2023-04-27T22:27:02.307Z,4.95
2023-04-27T22:29:28.651Z,3.58
2023-04-27T22:31:56.291Z,3.40
2023-04-27T22:34:23.419Z,3.53
2023-04-27T22:36:49.863Z,3.58
2023-04-27T22:39:16.475Z,3.45
2023-04-27T22:41:43.226Z,3.85
2023-04-27T22:44:09.670Z,3.38
2023-04-27T22:46:37.126Z,3.58
2023-04-27T22:49:03.517Z,3.50
2023-04-27T22:51:29.879Z,3.65
2023-04-27T22:53:56.590Z,3.75
2023-04-27T22:56:23.369Z,3.58
2023-04-27T22:58:49.765Z,4.07
2023-04-27T23:01:16.414Z,3.20
2023-04-27T23:03:43.187Z,3.53
2023-04-27T23:06:14.225Z,3.70
2023-04-27T23:08:46.097Z,3.80
2023-04-27T23:11:13.699Z,3.13
2023-04-27T23:13:40.446Z,3.13
2023-04-27T23:16:07.712Z,3.60
2023-04-27T23:18:34.105Z,3.80
2023-04-27T23:21:00.956Z,4.03
2023-04-27T23:23:27.277Z,3.88
2023-04-27T23:25:53.722Z,3.30
2023-04-27T23:28:21.231Z,3.78
2023-04-27T23:30:54.409Z,3.38
2023-04-27T23:33:21.765Z,3.80
2023-04-27T23:35:48.290Z,4.22
2023-04-27T23:38:14.666Z,4.00
2023-04-27T23:40:42.063Z,3.63
2023-04-27T23:43:08.408Z,3.10
2023-04-27T23:45:34.739Z,3.65
2023-04-27T23:48:01.566Z,3.40
2023-04-27T23:50:27.982Z,4.38
2023-04-27T23:52:54.294Z,3.53
2023-04-27T23:55:21.246Z,3.00
2023-04-27T23:57:47.815Z,3.30
